KENW/ENW METAR and TAF weather

Enter ICAO airport designator
Station Type Date Time Source
KENW METAR 2019/12/08 13:53 UTC NOAA

KENW 081353Z 21014KT 4SM HZ CLR 04/01 A2988 RMK AO2 SLP125 T00390011


Station Type Date Time Source
KENW Decoded METAR 2019/12/08 13:53 UTC NOAA

KENOSHA REGIONAL AIRPORT, WI, United States (KENW) 42-36N 087-56W 219M
Dec 08, 2019 - 08:53 AM EST / 2019.12.08 1353 UTC
Wind: from the SSW (210 degrees) at 16 MPH (14 KT):0
Visibility: 4 mile(s):0
Sky conditions: clear
Weather: haze
Temperature: 39.0 F (3.9 C)
Dew Point: 34.0 F (1.1 C)
Relative Humidity: 81%
Pressure (altimeter): 29.88 in. Hg (1011 hPa)
ob: KENW 081353Z 21014KT 4SM HZ CLR 04/01 A2988 RMK AO2 SLP125 T00390011
cycle: 14

Station Type Date Time Source
KENW TAF 2019/12/08 12:54 UTC NOAA

TAF KENW 081152Z 0812/0912 21014G24KT P6SM BKN200 WS020/23045KT
FM081500 22014G23KT P6SM BKN150
FM082000 22011KT P6SM OVC090
FM090100 VRB03KT P6SM OVC016
FM090400 VRB03KT 5SM BR VCSH OVC010
FM090600 VRB03KT 3SM -RA BR OVC006

Example: see airport list